Folsom, NM (88419)

11:20 PM MDT on March 26, 2015 (GMT -0600)
Baca Valley | | Change Station
CLOSE
Current Station
Personal Weather Station
Location: Des Moines, NM
Elevation: 6645 ft
Nearby Weather Stations

Elev 6645 ft 36.76 °N, 103.83 °W | Updated 5 minutes ago

Partly Cloudy
Partly Cloudy
41.0 °F
Feels Like 37 °F
N
6.0
Wind Variable Wind from SSW
Gusts 7.0 mph

Today
High -- | Low -- °F
--% Chance of Precip.
Yesterday
High -- | Low -- °F
Precip. -- in
6:50 AM 7:12 PM
Waxing Crescent, 49% visible
Pressure 30.18 in
Visibility 10.0 miles
Clouds Few 12000 ft
Windchill 37 °F
Dew Point 23 °F
Humidity 49%
Rainfall -999.00 in
Snow Depth Not available.
UV 0 out of 12
Pollen 9.30 out of 12
Air Quality Not available.
Flu Activity Not available.
METAR KTAD 270454Z AUTO 31005KT 10SM FEW120 04/M01 A3023 RMK AO2 SLP218 T00441011

More Conditions Fewer Conditions

Pressure 30.18 in
Visibility 10.0 miles
Clouds Few 12000 ft
Windchill 37 °F
Dew Point 23 °F
Humidity 49%
Rainfall -999.00 in
Snow Depth Not available.
UV 0 out of 12
Pollen 9.30 out of 12
Air Quality Not available.
Flu Activity Not available.
METAR KTAD 270454Z AUTO 31005KT 10SM FEW120 04/M01 A3023 RMK AO2 SLP218 T00441011

More Conditions Fewer Conditions

10-Day Weather Forecast

Almanac

Astronomy

Mar. 26, 2015 Rise Set
Actual Time
Civil Twilight
Nautical Twilight
Astronomical Twilight
Moon
Length of Visible Light
Length of Day
Tomorrow will be .
, % of the Moon is Illuminated

Today's Extremes

State Highs State Lows

Community

WunderPhotos

Upload Photos

1,808,698 photos uploaded!

WunderBlogs® & News

Nearby

Air Quality

  Air Quality AQ Index Pollutant
Not available.

Snow Depth

Station Depth Elevation

Earthquake Activity

City Distance Mag. Time & Date
Minimum magnitude displayed is 2.5.

Coastal Water Temperatures

Place Temperature

Stations

Nearby Weather Stations

Station Location Temp. Windchill Dew Point Humidity Wind Precip. Elev Updated Type